PRMSH SBCN-SBPJ
Flight info
| Callsign | PRMSH |
|---|---|
| Flight time | 2h 20m |
| Altitude | 8000 |
| Route | PABIN UZ25 SEKPO DCT LIBEC |
| Aircraft | E110/L-SDG/C |
Departure
| Time | 2026-04-18 14:18 |
|---|---|
| Airport | Nelson Ribeiro Guimarães Airport (SBCN) |
Arrival
| Time | 2026-04-18 16:38 |
|---|---|
| Airport | Brigadeiro Lysias Rodrigues Airport (SBPJ) |
| Time | Latitude | Longitude | Altitude | Speed | Heading |
|---|---|---|---|---|---|
| 2026-04-18 14:04 | -17.72582 | -48.61435 | 2321 ft | 0 kts | 335° |
| 2026-04-18 14:14 | -17.72576 | -48.61438 | 2321 ft | 3 kts | 311° |
| 2026-04-18 14:14 | -17.72584 | -48.61463 | 2322 ft | 5 kts | 217° |
| 2026-04-18 14:14 | -17.72624 | -48.61458 | 2322 ft | 7 kts | 141° |
| 2026-04-18 14:14 | -17.72659 | -48.61429 | 2321 ft | 4 kts | 144° |
| 2026-04-18 14:15 | -17.72698 | -48.61404 | 2321 ft | 8 kts | 154° |
| 2026-04-18 14:15 | -17.72742 | -48.61384 | 2321 ft | 8 kts | 159° |
| 2026-04-18 14:15 | -17.72807 | -48.61374 | 2320 ft | 9 kts | 212° |
| 2026-04-18 14:15 | -17.72853 | -48.61441 | 2322 ft | 8 kts | 239° |
| 2026-04-18 14:16 | -17.72905 | -48.61483 | 2323 ft | 9 kts | 208° |
| 2026-04-18 14:16 | -17.72897 | -48.61530 | 2324 ft | 8 kts | 356° |
| 2026-04-18 14:16 | -17.72857 | -48.61466 | 2323 ft | 12 kts | 63° |
| 2026-04-18 14:16 | -17.72846 | -48.61441 | 2322 ft | 21 kts | 65° |
| 2026-04-18 14:17 | -17.72676 | -48.61040 | 2312 ft | 90 kts | 66° |
| 2026-04-18 14:17 | -17.72359 | -48.60324 | 2319 ft | 117 kts | 62° |
| 2026-04-18 14:17 | -17.71626 | -48.58682 | 2608 ft | 129 kts | 67° |
| 2026-04-18 14:18 | -17.71672 | -48.56712 | 2931 ft | 144 kts | 108° |
| 2026-04-18 14:18 | -17.72186 | -48.55807 | 3171 ft | 145 kts | 127° |
| 2026-04-18 14:19 | -17.73306 | -48.53973 | 3488 ft | 152 kts | 110° |
| 2026-04-18 14:19 | -17.73649 | -48.52911 | 3662 ft | 153 kts | 104° |
| 2026-04-18 14:19 | -17.73725 | -48.50745 | 3998 ft | 152 kts | 55° |
| 2026-04-18 14:20 | -17.72947 | -48.50081 | 4160 ft | 153 kts | 29° |
| 2026-04-18 14:20 | -17.71970 | -48.49650 | 4339 ft | 153 kts | 21° |
| 2026-04-18 14:20 | -17.70934 | -48.49319 | 4499 ft | 155 kts | 17° |
| 2026-04-18 14:20 | -17.69884 | -48.49048 | 4678 ft | 154 kts | 15° |
| 2026-04-18 14:21 | -17.68828 | -48.48805 | 4857 ft | 154 kts | 14° |
| 2026-04-18 14:21 | -17.67771 | -48.48579 | 5032 ft | 154 kts | 13° |
| 2026-04-18 14:21 | -17.66709 | -48.48358 | 5188 ft | 155 kts | 13° |
| 2026-04-18 14:22 | -17.64559 | -48.47922 | 5442 ft | 159 kts | 13° |
| 2026-04-18 14:22 | -17.63453 | -48.47699 | 5575 ft | 160 kts | 13° |
| 2026-04-18 14:22 | -17.61248 | -48.47257 | 5843 ft | 161 kts | 13° |
| 2026-04-18 14:23 | -17.60144 | -48.47036 | 5976 ft | 161 kts | 13° |
| 2026-04-18 14:23 | -17.57905 | -48.46587 | 6156 ft | 168 kts | 13° |
| 2026-04-18 14:23 | -17.56702 | -48.46345 | 6120 ft | 177 kts | 13° |
| 2026-04-18 14:24 | -17.52688 | -48.45541 | 6111 ft | 188 kts | 13° |
| 2026-04-18 14:24 | -17.51378 | -48.45278 | 6110 ft | 189 kts | 13° |
| 2026-04-18 14:25 | -17.50078 | -48.45018 | 6109 ft | 191 kts | 12° |
| 2026-04-18 14:25 | -17.48756 | -48.44754 | 6109 ft | 191 kts | 12° |
| 2026-04-18 14:25 | -17.47443 | -48.44491 | 6110 ft | 192 kts | 12° |
| 2026-04-18 14:25 | -17.46120 | -48.44226 | 6111 ft | 192 kts | 12° |
| 2026-04-18 14:26 | -17.44793 | -48.43961 | 6111 ft | 192 kts | 12° |
| 2026-04-18 14:26 | -17.43477 | -48.43698 | 6112 ft | 193 kts | 12° |
| 2026-04-18 14:26 | -17.42147 | -48.43432 | 6112 ft | 193 kts | 13° |
| 2026-04-18 14:26 | -17.40816 | -48.43166 | 6113 ft | 193 kts | 13° |
| 2026-04-18 14:27 | -17.39500 | -48.42903 | 6116 ft | 193 kts | 12° |
| 2026-04-18 14:27 | -17.38172 | -48.42638 | 6120 ft | 193 kts | 12° |
| 2026-04-18 14:27 | -17.36834 | -48.42371 | 6126 ft | 193 kts | 13° |
| 2026-04-18 14:27 | -17.35514 | -48.42108 | 6127 ft | 193 kts | 12° |
| 2026-04-18 14:28 | -17.34192 | -48.41846 | 6127 ft | 193 kts | 12° |
| 2026-04-18 14:28 | -17.32865 | -48.41582 | 6127 ft | 193 kts | 12° |
| 2026-04-18 14:28 | -17.31528 | -48.41316 | 6129 ft | 193 kts | 12° |
| 2026-04-18 14:28 | -17.30197 | -48.41050 | 6133 ft | 192 kts | 12° |
| 2026-04-18 14:29 | -17.28882 | -48.40788 | 6134 ft | 192 kts | 12° |
| 2026-04-18 14:29 | -17.27560 | -48.40525 | 6136 ft | 192 kts | 12° |
| 2026-04-18 14:29 | -17.26231 | -48.40262 | 6138 ft | 192 kts | 12° |
| 2026-04-18 14:29 | -17.24903 | -48.39999 | 6139 ft | 192 kts | 12° |
| 2026-04-18 14:30 | -17.23587 | -48.39737 | 6139 ft | 192 kts | 12° |
| 2026-04-18 14:30 | -17.22262 | -48.39474 | 6140 ft | 193 kts | 12° |
| 2026-04-18 14:30 | -17.20944 | -48.39211 | 6140 ft | 193 kts | 12° |
| 2026-04-18 14:30 | -17.19618 | -48.38948 | 6141 ft | 193 kts | 12° |
| 2026-04-18 14:31 | -17.18292 | -48.38683 | 6141 ft | 193 kts | 13° |
| 2026-04-18 14:31 | -17.16963 | -48.38418 | 6141 ft | 193 kts | 12° |
| 2026-04-18 14:31 | -17.15634 | -48.38153 | 6142 ft | 193 kts | 12° |
| 2026-04-18 14:31 | -17.14306 | -48.37889 | 6142 ft | 193 kts | 12° |
| 2026-04-18 14:32 | -17.12998 | -48.37627 | 6141 ft | 193 kts | 12° |
| 2026-04-18 14:32 | -17.11665 | -48.37362 | 6142 ft | 192 kts | 12° |
| 2026-04-18 14:32 | -17.10352 | -48.37101 | 6144 ft | 192 kts | 12° |
| 2026-04-18 14:32 | -17.09016 | -48.36835 | 6144 ft | 192 kts | 12° |
| 2026-04-18 14:33 | -17.07690 | -48.36570 | 6144 ft | 192 kts | 12° |
| 2026-04-18 14:33 | -17.06361 | -48.36306 | 6144 ft | 192 kts | 12° |
| 2026-04-18 14:33 | -17.05034 | -48.36042 | 6147 ft | 192 kts | 12° |
| 2026-04-18 14:33 | -17.03720 | -48.35780 | 6147 ft | 192 kts | 12° |
| 2026-04-18 14:34 | -17.02394 | -48.35516 | 6145 ft | 193 kts | 13° |
| 2026-04-18 14:34 | -17.01069 | -48.35253 | 6144 ft | 193 kts | 13° |
| 2026-04-18 14:34 | -16.99753 | -48.34991 | 6141 ft | 193 kts | 12° |
| 2026-04-18 14:34 | -16.98448 | -48.34731 | 6140 ft | 193 kts | 12° |
| 2026-04-18 14:35 | -16.97081 | -48.34459 | 6139 ft | 193 kts | 12° |
| 2026-04-18 14:35 | -16.95758 | -48.34195 | 6137 ft | 193 kts | 12° |
| 2026-04-18 14:35 | -16.94429 | -48.33931 | 6133 ft | 193 kts | 12° |
| 2026-04-18 14:35 | -16.93092 | -48.33666 | 6132 ft | 193 kts | 12° |
| 2026-04-18 14:36 | -16.91772 | -48.33402 | 6131 ft | 193 kts | 12° |
| 2026-04-18 14:36 | -16.90427 | -48.33135 | 6131 ft | 193 kts | 12° |
| 2026-04-18 14:36 | -16.89099 | -48.32871 | 6135 ft | 193 kts | 12° |
| 2026-04-18 14:36 | -16.87758 | -48.32606 | 6136 ft | 193 kts | 12° |
| 2026-04-18 14:37 | -16.86415 | -48.32339 | 6135 ft | 193 kts | 12° |
| 2026-04-18 14:37 | -16.85082 | -48.32074 | 6137 ft | 193 kts | 12° |
| 2026-04-18 14:37 | -16.83786 | -48.31816 | 6136 ft | 193 kts | 13° |
| 2026-04-18 14:37 | -16.82463 | -48.31554 | 6137 ft | 193 kts | 12° |
| 2026-04-18 14:38 | -16.81115 | -48.31285 | 6137 ft | 194 kts | 12° |
| 2026-04-18 14:38 | -16.79796 | -48.31023 | 6136 ft | 194 kts | 12° |
| 2026-04-18 14:38 | -16.78448 | -48.30756 | 6135 ft | 194 kts | 12° |
| 2026-04-18 14:38 | -16.77127 | -48.30494 | 6135 ft | 194 kts | 12° |
| 2026-04-18 14:39 | -16.75798 | -48.30230 | 6137 ft | 194 kts | 12° |
| 2026-04-18 14:39 | -16.74456 | -48.29966 | 6137 ft | 194 kts | 10° |
| 2026-04-18 14:39 | -16.73114 | -48.29813 | 6139 ft | 194 kts | 6° |
| 2026-04-18 14:39 | -16.71769 | -48.29684 | 6140 ft | 194 kts | 7° |
| 2026-04-18 14:40 | -16.70423 | -48.29556 | 6140 ft | 194 kts | 6° |
| 2026-04-18 14:40 | -16.69069 | -48.29427 | 6141 ft | 194 kts | 6° |
| 2026-04-18 14:40 | -16.67719 | -48.29299 | 6142 ft | 194 kts | 6° |
| 2026-04-18 14:40 | -16.66357 | -48.29170 | 6144 ft | 194 kts | 7° |
| 2026-04-18 14:41 | -16.64995 | -48.29041 | 6144 ft | 194 kts | 7° |
| 2026-04-18 14:41 | -16.63644 | -48.28913 | 6145 ft | 195 kts | 7° |
| 2026-04-18 14:41 | -16.62290 | -48.28785 | 6147 ft | 195 kts | 7° |
| 2026-04-18 14:41 | -16.60918 | -48.28654 | 6149 ft | 195 kts | 7° |
| 2026-04-18 14:42 | -16.59575 | -48.28527 | 6150 ft | 195 kts | 7° |
| 2026-04-18 14:42 | -16.58207 | -48.28397 | 6151 ft | 195 kts | 6° |
| 2026-04-18 14:42 | -16.56859 | -48.28270 | 6153 ft | 195 kts | 6° |
| 2026-04-18 14:42 | -16.55492 | -48.28141 | 6155 ft | 194 kts | 6° |
| 2026-04-18 14:43 | -16.54143 | -48.28013 | 6155 ft | 194 kts | 7° |
| 2026-04-18 14:43 | -16.52779 | -48.27885 | 6159 ft | 194 kts | 7° |
| 2026-04-18 14:43 | -16.51434 | -48.27758 | 6159 ft | 194 kts | 7° |
| 2026-04-18 14:43 | -16.50080 | -48.27629 | 6158 ft | 194 kts | 7° |
| 2026-04-18 14:44 | -16.48750 | -48.27504 | 6157 ft | 195 kts | 7° |
| 2026-04-18 14:44 | -16.47393 | -48.27375 | 6156 ft | 195 kts | 7° |
| 2026-04-18 14:44 | -16.46036 | -48.27247 | 6156 ft | 195 kts | 7° |
| 2026-04-18 14:44 | -16.44670 | -48.27118 | 6157 ft | 195 kts | 7° |
| 2026-04-18 14:45 | -16.43322 | -48.26991 | 6157 ft | 195 kts | 7° |
| 2026-04-18 14:45 | -16.41949 | -48.26861 | 6158 ft | 195 kts | 7° |
| 2026-04-18 14:45 | -16.40598 | -48.26733 | 6160 ft | 195 kts | 6° |
| 2026-04-18 14:45 | -16.39237 | -48.26604 | 6157 ft | 195 kts | 6° |
| 2026-04-18 14:46 | -16.37866 | -48.26476 | 6158 ft | 195 kts | 6° |
| 2026-04-18 14:46 | -16.36515 | -48.26348 | 6157 ft | 195 kts | 7° |
| 2026-04-18 14:46 | -16.35157 | -48.26220 | 6158 ft | 195 kts | 7° |
| 2026-04-18 14:46 | -16.33795 | -48.26091 | 6154 ft | 195 kts | 6° |
| 2026-04-18 14:47 | -16.32429 | -48.25962 | 6153 ft | 195 kts | 7° |
| 2026-04-18 14:47 | -16.31072 | -48.25835 | 6156 ft | 195 kts | 7° |
| 2026-04-18 14:47 | -16.29705 | -48.25705 | 6157 ft | 195 kts | 7° |
| 2026-04-18 14:47 | -16.28348 | -48.25577 | 6160 ft | 196 kts | 7° |
| 2026-04-18 14:48 | -16.26985 | -48.25449 | 6159 ft | 196 kts | 7° |
| 2026-04-18 14:48 | -16.25629 | -48.25320 | 6155 ft | 196 kts | 6° |
| 2026-04-18 14:48 | -16.24265 | -48.25192 | 6155 ft | 196 kts | 7° |
| 2026-04-18 14:48 | -16.22886 | -48.25062 | 6155 ft | 196 kts | 7° |
| 2026-04-18 14:49 | -16.21524 | -48.24933 | 6155 ft | 196 kts | 6° |
| 2026-04-18 14:49 | -16.20151 | -48.24804 | 6152 ft | 196 kts | 6° |
| 2026-04-18 14:49 | -16.18798 | -48.24677 | 6150 ft | 196 kts | 7° |
| 2026-04-18 14:49 | -16.17429 | -48.24548 | 6148 ft | 196 kts | 7° |
| 2026-04-18 14:50 | -16.16050 | -48.24418 | 6147 ft | 196 kts | 7° |
| 2026-04-18 14:50 | -16.14680 | -48.24289 | 6148 ft | 196 kts | 7° |
| 2026-04-18 14:50 | -16.13314 | -48.24160 | 6151 ft | 196 kts | 7° |
| 2026-04-18 14:50 | -16.11954 | -48.24033 | 6151 ft | 196 kts | 7° |
| 2026-04-18 14:51 | -16.10597 | -48.23905 | 6154 ft | 196 kts | 7° |
| 2026-04-18 14:51 | -16.09219 | -48.23775 | 6158 ft | 196 kts | 7° |
| 2026-04-18 14:51 | -16.07862 | -48.23647 | 6161 ft | 196 kts | 7° |
| 2026-04-18 14:51 | -16.06490 | -48.23517 | 6159 ft | 197 kts | 7° |
| 2026-04-18 14:52 | -16.05117 | -48.23388 | 6160 ft | 197 kts | 7° |
| 2026-04-18 14:52 | -16.03743 | -48.23259 | 6167 ft | 196 kts | 6° |
| 2026-04-18 14:52 | -16.02380 | -48.23130 | 6176 ft | 196 kts | 7° |
| 2026-04-18 14:52 | -16.01028 | -48.23003 | 6163 ft | 196 kts | 6° |
| 2026-04-18 14:53 | -15.99657 | -48.22875 | 6167 ft | 195 kts | 7° |
| 2026-04-18 14:53 | -15.98300 | -48.22747 | 6168 ft | 195 kts | 6° |
| 2026-04-18 14:53 | -15.96932 | -48.22619 | 6165 ft | 195 kts | 7° |
| 2026-04-18 14:53 | -15.95577 | -48.22491 | 6168 ft | 194 kts | 7° |
| 2026-04-18 14:54 | -15.94209 | -48.22363 | 6170 ft | 195 kts | 7° |
| 2026-04-18 14:54 | -15.92853 | -48.22236 | 6174 ft | 195 kts | 7° |
| 2026-04-18 14:54 | -15.91477 | -48.22106 | 6169 ft | 197 kts | 7° |
| 2026-04-18 14:54 | -15.90103 | -48.21977 | 6163 ft | 197 kts | 7° |
| 2026-04-18 14:55 | -15.88729 | -48.21847 | 6168 ft | 196 kts | 7° |
| 2026-04-18 14:55 | -15.87355 | -48.21718 | 6173 ft | 196 kts | 7° |
| 2026-04-18 14:55 | -15.86028 | -48.21594 | 6162 ft | 196 kts | 6° |
| 2026-04-18 14:55 | -15.84655 | -48.21465 | 6160 ft | 195 kts | 7° |
| 2026-04-18 14:56 | -15.83299 | -48.21337 | 6170 ft | 194 kts | 6° |
| 2026-04-18 14:56 | -15.81932 | -48.21210 | 6173 ft | 194 kts | 7° |
| 2026-04-18 14:56 | -15.80582 | -48.21083 | 6173 ft | 194 kts | 7° |
| 2026-04-18 14:56 | -15.79220 | -48.20955 | 6168 ft | 194 kts | 6° |
| 2026-04-18 14:57 | -15.77851 | -48.20827 | 6164 ft | 195 kts | 7° |
| 2026-04-18 14:57 | -15.76498 | -48.20701 | 6173 ft | 195 kts | 6° |
| 2026-04-18 14:57 | -15.75151 | -48.20575 | 6171 ft | 195 kts | 7° |
| 2026-04-18 14:57 | -15.73778 | -48.20446 | 6170 ft | 195 kts | 7° |
| 2026-04-18 14:58 | -15.72421 | -48.20320 | 6175 ft | 195 kts | 7° |
| 2026-04-18 14:58 | -15.71062 | -48.20192 | 6177 ft | 196 kts | 6° |
| 2026-04-18 14:58 | -15.69697 | -48.20065 | 6171 ft | 196 kts | 7° |
| 2026-04-18 14:58 | -15.68309 | -48.19936 | 6169 ft | 197 kts | 7° |
| 2026-04-18 14:59 | -15.66940 | -48.19808 | 6167 ft | 197 kts | 7° |
| 2026-04-18 14:59 | -15.65562 | -48.19679 | 6167 ft | 197 kts | 6° |
| 2026-04-18 14:59 | -15.64213 | -48.19553 | 6167 ft | 196 kts | 7° |
| 2026-04-18 14:59 | -15.62825 | -48.19424 | 6159 ft | 197 kts | 6° |
| 2026-04-18 15:00 | -15.61462 | -48.19297 | 6155 ft | 197 kts | 6° |
| 2026-04-18 15:00 | -15.60092 | -48.19170 | 6146 ft | 197 kts | 7° |
| 2026-04-18 15:00 | -15.58715 | -48.19041 | 6157 ft | 196 kts | 7° |
| 2026-04-18 15:00 | -15.57348 | -48.18914 | 6163 ft | 196 kts | 7° |
| 2026-04-18 15:01 | -15.55989 | -48.18786 | 6164 ft | 196 kts | 7° |
| 2026-04-18 15:01 | -15.54606 | -48.18658 | 6161 ft | 197 kts | 7° |
| 2026-04-18 15:01 | -15.53238 | -48.18530 | 6156 ft | 197 kts | 7° |
| 2026-04-18 15:01 | -15.51849 | -48.18401 | 6155 ft | 198 kts | 7° |
| 2026-04-18 15:02 | -15.50463 | -48.18271 | 6155 ft | 198 kts | 7° |
| 2026-04-18 15:02 | -15.49094 | -48.18149 | 6154 ft | 198 kts | 4° |
| 2026-04-18 15:02 | -15.47699 | -48.18161 | 6151 ft | 199 kts | 0° |
| 2026-04-18 15:02 | -15.46308 | -48.18199 | 6149 ft | 199 kts | 0° |
| 2026-04-18 15:03 | -15.44914 | -48.18238 | 6149 ft | 199 kts | 360° |
| 2026-04-18 15:03 | -15.43513 | -48.18277 | 6144 ft | 199 kts | 360° |
| 2026-04-18 15:03 | -15.42135 | -48.18316 | 6144 ft | 199 kts | 359° |
| 2026-04-18 15:03 | -15.40733 | -48.18356 | 6145 ft | 199 kts | 0° |
| 2026-04-18 15:04 | -15.39335 | -48.18396 | 6146 ft | 200 kts | 359° |
| 2026-04-18 15:04 | -15.37928 | -48.18436 | 6140 ft | 200 kts | 0° |
| 2026-04-18 15:04 | -15.36530 | -48.18476 | 6139 ft | 200 kts | 0° |
| 2026-04-18 15:04 | -15.35141 | -48.18515 | 6138 ft | 200 kts | 360° |
| 2026-04-18 15:05 | -15.33743 | -48.18555 | 6144 ft | 199 kts | 359° |
| 2026-04-18 15:05 | -15.32341 | -48.18595 | 6143 ft | 200 kts | 0° |
| 2026-04-18 15:05 | -15.30934 | -48.18635 | 6140 ft | 200 kts | 359° |
| 2026-04-18 15:05 | -15.29538 | -48.18676 | 6141 ft | 200 kts | 360° |
| 2026-04-18 15:06 | -15.28146 | -48.18715 | 6138 ft | 200 kts | 360° |
| 2026-04-18 15:06 | -15.26737 | -48.18755 | 6137 ft | 200 kts | 0° |
| 2026-04-18 15:06 | -15.25348 | -48.18794 | 6130 ft | 200 kts | 360° |
| 2026-04-18 15:06 | -15.23943 | -48.18835 | 6129 ft | 200 kts | 360° |
| 2026-04-18 15:07 | -15.22537 | -48.18876 | 6127 ft | 200 kts | 359° |
| 2026-04-18 15:07 | -15.21148 | -48.18915 | 6137 ft | 199 kts | 360° |
| 2026-04-18 15:07 | -15.19726 | -48.18955 | 6137 ft | 199 kts | 360° |
| 2026-04-18 15:07 | -15.18339 | -48.18995 | 6135 ft | 199 kts | 360° |
| 2026-04-18 15:08 | -15.16950 | -48.19035 | 6133 ft | 199 kts | 360° |
| 2026-04-18 15:08 | -15.15560 | -48.19075 | 6128 ft | 199 kts | 0° |
| 2026-04-18 15:08 | -15.14162 | -48.19115 | 6119 ft | 198 kts | 1° |
| 2026-04-18 15:08 | -15.12786 | -48.19154 | 6125 ft | 197 kts | 0° |
| 2026-04-18 15:09 | -15.11406 | -48.19192 | 6130 ft | 197 kts | 0° |
| 2026-04-18 15:09 | -15.10009 | -48.19233 | 6131 ft | 197 kts | 0° |
| 2026-04-18 15:09 | -15.08644 | -48.19271 | 6129 ft | 197 kts | 0° |
| 2026-04-18 15:09 | -15.07269 | -48.19310 | 6125 ft | 197 kts | 360° |
| 2026-04-18 15:10 | -15.05875 | -48.19350 | 6114 ft | 197 kts | 360° |
| 2026-04-18 15:10 | -15.04493 | -48.19389 | 6111 ft | 197 kts | 359° |
| 2026-04-18 15:10 | -15.03108 | -48.19429 | 6112 ft | 197 kts | 360° |
| 2026-04-18 15:10 | -15.01735 | -48.19468 | 6107 ft | 197 kts | 0° |
| 2026-04-18 15:11 | -15.00340 | -48.19508 | 6115 ft | 198 kts | 0° |
| 2026-04-18 15:11 | -14.98962 | -48.19547 | 6116 ft | 198 kts | 359° |
| 2026-04-18 15:11 | -14.97581 | -48.19586 | 6126 ft | 199 kts | 360° |
| 2026-04-18 15:11 | -14.96173 | -48.19626 | 6127 ft | 200 kts | 360° |
| 2026-04-18 15:12 | -14.94770 | -48.19666 | 6122 ft | 200 kts | 360° |
| 2026-04-18 15:12 | -14.93379 | -48.19706 | 6122 ft | 200 kts | 359° |
| 2026-04-18 15:12 | -14.91965 | -48.19746 | 6123 ft | 200 kts | 360° |
| 2026-04-18 15:12 | -14.90565 | -48.19786 | 6123 ft | 200 kts | 360° |
| 2026-04-18 15:13 | -14.89158 | -48.19826 | 6119 ft | 200 kts | 360° |
| 2026-04-18 15:13 | -14.87763 | -48.19865 | 6111 ft | 200 kts | 360° |
| 2026-04-18 15:13 | -14.86377 | -48.19906 | 6106 ft | 199 kts | 0° |
| 2026-04-18 15:13 | -14.84980 | -48.19945 | 6114 ft | 198 kts | 0° |
| 2026-04-18 15:14 | -14.83593 | -48.19984 | 6118 ft | 198 kts | 0° |
| 2026-04-18 15:14 | -14.82196 | -48.20023 | 6122 ft | 198 kts | 359° |
| 2026-04-18 15:14 | -14.80813 | -48.20063 | 6118 ft | 198 kts | 360° |
| 2026-04-18 15:15 | -14.78068 | -48.20141 | 6127 ft | 199 kts | 359° |
| 2026-04-18 15:15 | -14.76647 | -48.20182 | 6125 ft | 199 kts | 360° |
| 2026-04-18 15:15 | -14.75252 | -48.20221 | 6126 ft | 199 kts | 360° |
| 2026-04-18 15:15 | -14.73846 | -48.20261 | 6129 ft | 199 kts | 360° |
| 2026-04-18 15:16 | -14.72454 | -48.20300 | 6130 ft | 199 kts | 359° |
| 2026-04-18 15:16 | -14.71065 | -48.20340 | 6129 ft | 199 kts | 360° |
| 2026-04-18 15:16 | -14.69673 | -48.20379 | 6125 ft | 199 kts | 360° |
| 2026-04-18 15:16 | -14.68282 | -48.20419 | 6125 ft | 199 kts | 360° |
| 2026-04-18 15:17 | -14.66886 | -48.20459 | 6127 ft | 199 kts | 359° |
| 2026-04-18 15:17 | -14.65498 | -48.20498 | 6128 ft | 200 kts | 359° |
| 2026-04-18 15:17 | -14.64085 | -48.20538 | 6121 ft | 200 kts | 359° |
| 2026-04-18 15:17 | -14.62679 | -48.20578 | 6122 ft | 201 kts | 360° |
| 2026-04-18 15:18 | -14.61288 | -48.20618 | 6121 ft | 201 kts | 360° |
| 2026-04-18 15:18 | -14.59877 | -48.20657 | 6122 ft | 201 kts | 359° |
| 2026-04-18 15:18 | -14.58461 | -48.20698 | 6119 ft | 202 kts | 359° |
| 2026-04-18 15:18 | -14.57066 | -48.20737 | 6119 ft | 202 kts | 359° |
| 2026-04-18 15:19 | -14.55652 | -48.20777 | 6111 ft | 202 kts | 359° |
| 2026-04-18 15:19 | -14.54224 | -48.20818 | 6111 ft | 202 kts | 359° |
| 2026-04-18 15:19 | -14.52812 | -48.20858 | 6107 ft | 201 kts | 359° |
| 2026-04-18 15:19 | -14.51378 | -48.20899 | 6106 ft | 201 kts | 359° |
| 2026-04-18 15:20 | -14.49965 | -48.20938 | 6109 ft | 201 kts | 359° |
| 2026-04-18 15:20 | -14.48558 | -48.20978 | 6110 ft | 201 kts | 359° |
| 2026-04-18 15:20 | -14.47151 | -48.21018 | 6111 ft | 201 kts | 359° |
| 2026-04-18 15:20 | -14.45750 | -48.21058 | 6104 ft | 201 kts | 359° |
| 2026-04-18 15:21 | -14.44343 | -48.21098 | 6099 ft | 202 kts | 359° |
| 2026-04-18 15:21 | -14.42928 | -48.21138 | 6090 ft | 202 kts | 359° |
| 2026-04-18 15:21 | -14.41531 | -48.21177 | 6085 ft | 202 kts | 359° |
| 2026-04-18 15:21 | -14.40111 | -48.21218 | 6080 ft | 202 kts | 359° |
| 2026-04-18 15:22 | -14.38684 | -48.21258 | 6076 ft | 202 kts | 359° |
| 2026-04-18 15:22 | -14.37277 | -48.21298 | 6074 ft | 201 kts | 359° |
| 2026-04-18 15:22 | -14.35878 | -48.21338 | 6067 ft | 201 kts | 359° |
| 2026-04-18 15:22 | -14.34458 | -48.21377 | 6060 ft | 201 kts | 359° |
| 2026-04-18 15:23 | -14.33058 | -48.21417 | 6053 ft | 201 kts | 359° |
| 2026-04-18 15:23 | -14.31649 | -48.21457 | 6055 ft | 200 kts | 359° |
| 2026-04-18 15:23 | -14.30264 | -48.21496 | 6053 ft | 200 kts | 359° |
| 2026-04-18 15:23 | -14.28857 | -48.21537 | 6047 ft | 200 kts | 359° |
| 2026-04-18 15:24 | -14.27457 | -48.21576 | 6044 ft | 200 kts | 359° |
| 2026-04-18 15:24 | -14.26059 | -48.21615 | 6040 ft | 200 kts | 359° |
| 2026-04-18 15:24 | -14.24653 | -48.21655 | 6037 ft | 201 kts | 359° |
| 2026-04-18 15:24 | -14.23243 | -48.21695 | 6040 ft | 201 kts | 359° |
| 2026-04-18 15:25 | -14.21829 | -48.21735 | 6041 ft | 201 kts | 358° |
| 2026-04-18 15:25 | -14.20407 | -48.21775 | 6039 ft | 202 kts | 358° |
| 2026-04-18 15:25 | -14.18992 | -48.21815 | 6038 ft | 202 kts | 358° |
| 2026-04-18 15:25 | -14.17578 | -48.21855 | 6033 ft | 202 kts | 358° |
| 2026-04-18 15:26 | -14.16174 | -48.21895 | 6034 ft | 202 kts | 359° |
| 2026-04-18 15:26 | -14.14760 | -48.21935 | 6036 ft | 202 kts | 359° |
| 2026-04-18 15:26 | -14.13345 | -48.21975 | 6036 ft | 201 kts | 359° |
| 2026-04-18 15:26 | -14.11917 | -48.22015 | 6034 ft | 201 kts | 359° |
| 2026-04-18 15:27 | -14.10512 | -48.22055 | 6033 ft | 201 kts | 359° |
| 2026-04-18 15:27 | -14.09083 | -48.22095 | 6035 ft | 201 kts | 359° |
| 2026-04-18 15:27 | -14.07684 | -48.22135 | 6035 ft | 201 kts | 358° |
| 2026-04-18 15:27 | -14.06280 | -48.22174 | 6037 ft | 201 kts | 359° |
| 2026-04-18 15:28 | -14.04874 | -48.22214 | 6033 ft | 202 kts | 359° |
| 2026-04-18 15:28 | -14.03457 | -48.22254 | 6035 ft | 202 kts | 358° |
| 2026-04-18 15:28 | -14.02041 | -48.22293 | 6036 ft | 202 kts | 359° |
| 2026-04-18 15:28 | -14.00629 | -48.22333 | 6034 ft | 202 kts | 358° |
| 2026-04-18 15:29 | -13.99214 | -48.22374 | 6033 ft | 202 kts | 359° |
| 2026-04-18 15:29 | -13.97809 | -48.22413 | 6031 ft | 201 kts | 359° |
| 2026-04-18 15:29 | -13.96387 | -48.22453 | 6034 ft | 201 kts | 359° |
| 2026-04-18 15:29 | -13.94980 | -48.22493 | 6032 ft | 201 kts | 359° |
| 2026-04-18 15:30 | -13.93560 | -48.22533 | 6029 ft | 201 kts | 359° |
| 2026-04-18 15:30 | -13.92206 | -48.22571 | 6029 ft | 200 kts | 359° |
| 2026-04-18 15:30 | -13.90807 | -48.22611 | 6029 ft | 200 kts | 359° |
| 2026-04-18 15:30 | -13.89401 | -48.22651 | 6028 ft | 201 kts | 359° |
| 2026-04-18 15:31 | -13.87972 | -48.22690 | 6029 ft | 201 kts | 358° |
| 2026-04-18 15:31 | -13.86556 | -48.22731 | 6027 ft | 201 kts | 359° |
| 2026-04-18 15:31 | -13.85158 | -48.22770 | 6022 ft | 201 kts | 359° |
| 2026-04-18 15:31 | -13.83746 | -48.22810 | 6020 ft | 201 kts | 359° |
| 2026-04-18 15:32 | -13.82337 | -48.22849 | 6019 ft | 201 kts | 359° |
| 2026-04-18 15:32 | -13.80912 | -48.22889 | 6010 ft | 202 kts | 358° |
| 2026-04-18 15:32 | -13.79509 | -48.22929 | 6011 ft | 202 kts | 358° |
| 2026-04-18 15:32 | -13.78081 | -48.22969 | 6010 ft | 202 kts | 359° |
| 2026-04-18 15:33 | -13.76670 | -48.23010 | 6008 ft | 202 kts | 359° |
| 2026-04-18 15:33 | -13.75260 | -48.23049 | 6004 ft | 202 kts | 359° |
| 2026-04-18 15:33 | -13.73851 | -48.23089 | 6001 ft | 201 kts | 359° |
| 2026-04-18 15:33 | -13.72447 | -48.23128 | 5998 ft | 201 kts | 359° |
| 2026-04-18 15:34 | -13.71046 | -48.23167 | 5998 ft | 200 kts | 359° |
| 2026-04-18 15:34 | -13.69625 | -48.23207 | 6001 ft | 200 kts | 358° |
| 2026-04-18 15:34 | -13.68242 | -48.23246 | 5998 ft | 200 kts | 359° |
| 2026-04-18 15:34 | -13.66846 | -48.23286 | 5998 ft | 200 kts | 359° |
| 2026-04-18 15:35 | -13.65442 | -48.23325 | 6001 ft | 200 kts | 359° |
| 2026-04-18 15:35 | -13.64043 | -48.23365 | 6007 ft | 200 kts | 359° |
| 2026-04-18 15:35 | -13.62635 | -48.23404 | 6008 ft | 200 kts | 359° |
| 2026-04-18 15:35 | -13.61231 | -48.23444 | 6009 ft | 200 kts | 359° |
| 2026-04-18 15:36 | -13.59831 | -48.23483 | 6009 ft | 200 kts | 359° |
| 2026-04-18 15:36 | -13.58426 | -48.23522 | 6008 ft | 200 kts | 359° |
| 2026-04-18 15:36 | -13.57023 | -48.23562 | 6010 ft | 200 kts | 359° |
| 2026-04-18 15:36 | -13.55624 | -48.23602 | 6012 ft | 200 kts | 359° |
| 2026-04-18 15:37 | -13.54228 | -48.23640 | 6010 ft | 199 kts | 359° |
| 2026-04-18 15:37 | -13.52844 | -48.23679 | 6011 ft | 199 kts | 359° |
| 2026-04-18 15:37 | -13.51454 | -48.23719 | 6013 ft | 199 kts | 359° |
| 2026-04-18 15:37 | -13.50053 | -48.23758 | 6015 ft | 199 kts | 359° |
| 2026-04-18 15:38 | -13.48665 | -48.23797 | 6015 ft | 199 kts | 359° |
| 2026-04-18 15:38 | -13.47261 | -48.23836 | 6016 ft | 200 kts | 359° |
| 2026-04-18 15:38 | -13.45864 | -48.23876 | 6012 ft | 200 kts | 360° |
| 2026-04-18 15:38 | -13.44469 | -48.23914 | 6011 ft | 200 kts | 359° |
| 2026-04-18 15:39 | -13.43067 | -48.23954 | 6011 ft | 200 kts | 359° |
| 2026-04-18 15:39 | -13.41675 | -48.23993 | 6006 ft | 200 kts | 359° |
| 2026-04-18 15:39 | -13.40273 | -48.24033 | 6007 ft | 200 kts | 359° |
| 2026-04-18 15:39 | -13.38865 | -48.24072 | 6011 ft | 199 kts | 359° |
| 2026-04-18 15:40 | -13.37467 | -48.24111 | 6009 ft | 199 kts | 359° |
| 2026-04-18 15:40 | -13.36070 | -48.24150 | 6010 ft | 199 kts | 359° |
| 2026-04-18 15:40 | -13.34679 | -48.24189 | 6011 ft | 199 kts | 359° |
| 2026-04-18 15:40 | -13.33271 | -48.24229 | 6009 ft | 199 kts | 359° |
| 2026-04-18 15:41 | -13.31882 | -48.24268 | 6006 ft | 199 kts | 359° |
| 2026-04-18 15:41 | -13.30484 | -48.24307 | 6003 ft | 199 kts | 359° |
| 2026-04-18 15:41 | -13.29076 | -48.24347 | 6002 ft | 199 kts | 359° |
| 2026-04-18 15:41 | -13.27691 | -48.24385 | 6002 ft | 199 kts | 359° |
| 2026-04-18 15:42 | -13.26291 | -48.24425 | 6002 ft | 199 kts | 359° |
| 2026-04-18 15:42 | -13.24891 | -48.24464 | 6002 ft | 199 kts | 359° |
| 2026-04-18 15:42 | -13.23500 | -48.24503 | 6000 ft | 199 kts | 359° |
| 2026-04-18 15:42 | -13.22104 | -48.24542 | 5998 ft | 199 kts | 359° |
| 2026-04-18 15:43 | -13.20720 | -48.24581 | 5997 ft | 199 kts | 359° |
| 2026-04-18 15:43 | -13.19334 | -48.24620 | 5996 ft | 199 kts | 359° |
| 2026-04-18 15:43 | -13.17928 | -48.24659 | 5993 ft | 199 kts | 359° |
| 2026-04-18 15:43 | -13.16544 | -48.24698 | 5995 ft | 198 kts | 359° |
| 2026-04-18 15:44 | -13.15157 | -48.24737 | 5996 ft | 198 kts | 359° |
| 2026-04-18 15:44 | -13.13757 | -48.24776 | 5996 ft | 198 kts | 359° |
| 2026-04-18 15:44 | -13.12374 | -48.24814 | 5996 ft | 198 kts | 359° |
| 2026-04-18 15:44 | -13.10977 | -48.24854 | 5995 ft | 198 kts | 359° |
| 2026-04-18 15:45 | -13.09607 | -48.24893 | 5988 ft | 199 kts | 359° |
| 2026-04-18 15:45 | -13.08205 | -48.24932 | 5986 ft | 198 kts | 360° |
| 2026-04-18 15:45 | -13.06817 | -48.24971 | 5983 ft | 199 kts | 359° |
| 2026-04-18 15:45 | -13.05426 | -48.25009 | 5978 ft | 199 kts | 359° |
| 2026-04-18 15:46 | -13.04040 | -48.25048 | 5981 ft | 198 kts | 359° |
| 2026-04-18 15:46 | -13.02654 | -48.25087 | 5982 ft | 198 kts | 359° |
| 2026-04-18 15:46 | -13.01271 | -48.25126 | 5977 ft | 198 kts | 359° |
| 2026-04-18 15:46 | -12.99887 | -48.25164 | 5980 ft | 198 kts | 359° |
| 2026-04-18 15:47 | -12.98503 | -48.25203 | 5981 ft | 198 kts | 359° |
| 2026-04-18 15:47 | -12.97110 | -48.25242 | 5984 ft | 198 kts | 359° |
| 2026-04-18 15:47 | -12.95720 | -48.25281 | 5981 ft | 198 kts | 359° |
| 2026-04-18 15:47 | -12.94335 | -48.25320 | 5977 ft | 198 kts | 359° |
| 2026-04-18 15:48 | -12.92948 | -48.25359 | 5977 ft | 198 kts | 360° |
| 2026-04-18 15:48 | -12.91572 | -48.25397 | 5978 ft | 197 kts | 360° |
| 2026-04-18 15:48 | -12.90190 | -48.25436 | 5977 ft | 197 kts | 359° |
| 2026-04-18 15:48 | -12.88812 | -48.25474 | 5977 ft | 197 kts | 360° |
| 2026-04-18 15:49 | -12.87409 | -48.25514 | 5975 ft | 197 kts | 360° |
| 2026-04-18 15:49 | -12.86036 | -48.25551 | 5977 ft | 197 kts | 359° |
| 2026-04-18 15:49 | -12.84695 | -48.25589 | 5976 ft | 197 kts | 359° |
| 2026-04-18 15:49 | -12.83373 | -48.25625 | 5976 ft | 197 kts | 359° |
| 2026-04-18 15:50 | -12.82001 | -48.25664 | 5979 ft | 197 kts | 359° |
| 2026-04-18 15:50 | -12.80585 | -48.25704 | 5980 ft | 197 kts | 359° |
| 2026-04-18 15:50 | -12.79237 | -48.25742 | 5973 ft | 197 kts | 359° |
| 2026-04-18 15:50 | -12.77840 | -48.25781 | 5970 ft | 197 kts | 359° |
| 2026-04-18 15:51 | -12.76438 | -48.25820 | 5974 ft | 197 kts | 360° |
| 2026-04-18 15:51 | -12.75067 | -48.25858 | 5972 ft | 197 kts | 359° |
| 2026-04-18 15:51 | -12.73694 | -48.25897 | 5972 ft | 197 kts | 359° |
| 2026-04-18 15:51 | -12.72314 | -48.25935 | 5975 ft | 197 kts | 360° |
| 2026-04-18 15:52 | -12.70930 | -48.25973 | 5978 ft | 197 kts | 359° |
| 2026-04-18 15:52 | -12.69524 | -48.26012 | 5977 ft | 197 kts | 359° |
| 2026-04-18 15:52 | -12.68159 | -48.26051 | 5977 ft | 197 kts | 359° |
| 2026-04-18 15:52 | -12.66762 | -48.26090 | 5979 ft | 197 kts | 360° |
| 2026-04-18 15:53 | -12.65385 | -48.26128 | 5975 ft | 198 kts | 359° |
| 2026-04-18 15:53 | -12.63997 | -48.26167 | 5971 ft | 198 kts | 359° |
| 2026-04-18 15:53 | -12.62618 | -48.26205 | 5972 ft | 198 kts | 359° |
| 2026-04-18 15:53 | -12.61238 | -48.26244 | 5976 ft | 198 kts | 359° |
| 2026-04-18 15:54 | -12.59846 | -48.26282 | 5976 ft | 198 kts | 359° |
| 2026-04-18 15:54 | -12.58466 | -48.26321 | 5970 ft | 198 kts | 359° |
| 2026-04-18 15:54 | -12.57080 | -48.26360 | 5970 ft | 198 kts | 359° |
| 2026-04-18 15:54 | -12.55703 | -48.26399 | 5972 ft | 197 kts | 359° |
| 2026-04-18 15:55 | -12.54323 | -48.26437 | 5969 ft | 197 kts | 359° |
| 2026-04-18 15:55 | -12.52948 | -48.26475 | 5970 ft | 197 kts | 359° |
| 2026-04-18 15:55 | -12.51552 | -48.26515 | 5971 ft | 197 kts | 360° |
| 2026-04-18 15:55 | -12.50174 | -48.26553 | 5971 ft | 197 kts | 359° |
| 2026-04-18 15:56 | -12.48799 | -48.26590 | 5968 ft | 198 kts | 359° |
| 2026-04-18 15:56 | -12.47415 | -48.26629 | 5968 ft | 198 kts | 359° |
| 2026-04-18 15:56 | -12.46040 | -48.26668 | 5969 ft | 198 kts | 359° |
| 2026-04-18 15:56 | -12.44642 | -48.26706 | 5969 ft | 198 kts | 359° |
| 2026-04-18 15:57 | -12.43264 | -48.26745 | 5965 ft | 198 kts | 359° |
| 2026-04-18 15:57 | -12.41882 | -48.26783 | 5957 ft | 198 kts | 359° |
| 2026-04-18 15:57 | -12.40490 | -48.26822 | 5954 ft | 198 kts | 359° |
| 2026-04-18 15:57 | -12.39111 | -48.26860 | 5955 ft | 198 kts | 359° |
| 2026-04-18 15:58 | -12.37722 | -48.26899 | 5957 ft | 198 kts | 359° |
| 2026-04-18 15:58 | -12.36334 | -48.26938 | 5955 ft | 197 kts | 359° |
| 2026-04-18 15:58 | -12.34946 | -48.26976 | 5955 ft | 197 kts | 359° |
| 2026-04-18 15:58 | -12.33585 | -48.27014 | 5957 ft | 197 kts | 359° |
| 2026-04-18 15:59 | -12.32195 | -48.27053 | 5954 ft | 197 kts | 359° |
| 2026-04-18 15:59 | -12.30812 | -48.27091 | 5952 ft | 197 kts | 359° |
| 2026-04-18 15:59 | -12.29442 | -48.27130 | 5955 ft | 197 kts | 359° |
| 2026-04-18 15:59 | -12.28057 | -48.27169 | 5955 ft | 197 kts | 359° |
| 2026-04-18 16:00 | -12.26663 | -48.27208 | 5955 ft | 197 kts | 359° |
| 2026-04-18 16:00 | -12.25293 | -48.27245 | 5955 ft | 198 kts | 359° |
| 2026-04-18 16:00 | -12.23905 | -48.27284 | 5957 ft | 198 kts | 359° |
| 2026-04-18 16:00 | -12.22519 | -48.27323 | 5961 ft | 198 kts | 359° |
| 2026-04-18 16:01 | -12.21134 | -48.27361 | 5966 ft | 197 kts | 359° |
| 2026-04-18 16:01 | -12.19755 | -48.27399 | 5970 ft | 197 kts | 359° |
| 2026-04-18 16:01 | -12.18385 | -48.27437 | 5975 ft | 197 kts | 359° |
| 2026-04-18 16:01 | -12.17007 | -48.27476 | 5974 ft | 197 kts | 359° |
| 2026-04-18 16:02 | -12.15618 | -48.27515 | 5973 ft | 197 kts | 360° |
| 2026-04-18 16:02 | -12.14244 | -48.27552 | 5968 ft | 197 kts | 359° |
| 2026-04-18 16:02 | -12.12849 | -48.27591 | 5967 ft | 197 kts | 359° |
| 2026-04-18 16:02 | -12.11467 | -48.27629 | 5965 ft | 198 kts | 359° |
| 2026-04-18 16:03 | -12.10083 | -48.27668 | 5961 ft | 198 kts | 359° |
| 2026-04-18 16:03 | -12.08711 | -48.27707 | 5958 ft | 198 kts | 359° |
| 2026-04-18 16:03 | -12.07320 | -48.27745 | 5957 ft | 198 kts | 359° |
| 2026-04-18 16:03 | -12.05933 | -48.27784 | 5958 ft | 198 kts | 359° |
| 2026-04-18 16:04 | -12.04553 | -48.27822 | 5958 ft | 198 kts | 360° |
| 2026-04-18 16:04 | -12.03161 | -48.27861 | 5960 ft | 198 kts | 359° |
| 2026-04-18 16:04 | -12.01785 | -48.27898 | 5961 ft | 198 kts | 359° |
| 2026-04-18 16:04 | -12.00394 | -48.27937 | 5962 ft | 197 kts | 359° |
| 2026-04-18 16:05 | -11.99010 | -48.27976 | 5958 ft | 198 kts | 359° |
| 2026-04-18 16:05 | -11.97644 | -48.28014 | 5958 ft | 197 kts | 359° |
| 2026-04-18 16:05 | -11.96241 | -48.28052 | 5957 ft | 197 kts | 359° |
| 2026-04-18 16:05 | -11.94873 | -48.28090 | 5959 ft | 197 kts | 359° |
| 2026-04-18 16:06 | -11.93478 | -48.28129 | 5959 ft | 198 kts | 359° |
| 2026-04-18 16:06 | -11.92092 | -48.28167 | 5956 ft | 198 kts | 359° |
| 2026-04-18 16:06 | -11.90713 | -48.28205 | 5956 ft | 198 kts | 359° |
| 2026-04-18 16:06 | -11.89335 | -48.28244 | 5955 ft | 198 kts | 359° |
| 2026-04-18 16:07 | -11.87941 | -48.28283 | 5953 ft | 198 kts | 359° |
| 2026-04-18 16:07 | -11.86558 | -48.28321 | 5956 ft | 198 kts | 359° |
| 2026-04-18 16:07 | -11.85133 | -48.28361 | 5956 ft | 198 kts | 359° |
| 2026-04-18 16:07 | -11.83749 | -48.28400 | 5957 ft | 198 kts | 360° |
| 2026-04-18 16:08 | -11.82382 | -48.28437 | 5954 ft | 198 kts | 359° |
| 2026-04-18 16:08 | -11.80991 | -48.28476 | 5947 ft | 197 kts | 360° |
| 2026-04-18 16:08 | -11.79610 | -48.28514 | 5955 ft | 197 kts | 359° |
| 2026-04-18 16:08 | -11.78221 | -48.28552 | 5947 ft | 197 kts | 359° |
| 2026-04-18 16:09 | -11.76842 | -48.28590 | 5948 ft | 196 kts | 359° |
| 2026-04-18 16:09 | -11.75470 | -48.28628 | 5955 ft | 196 kts | 359° |
| 2026-04-18 16:09 | -11.74087 | -48.28667 | 5956 ft | 197 kts | 359° |
| 2026-04-18 16:09 | -11.72711 | -48.28705 | 5950 ft | 197 kts | 359° |
| 2026-04-18 16:10 | -11.71338 | -48.28743 | 5956 ft | 197 kts | 359° |
| 2026-04-18 16:10 | -11.69961 | -48.28782 | 5948 ft | 197 kts | 360° |
| 2026-04-18 16:10 | -11.68580 | -48.28820 | 5952 ft | 197 kts | 360° |
| 2026-04-18 16:10 | -11.67200 | -48.28858 | 5949 ft | 197 kts | 359° |
| 2026-04-18 16:11 | -11.65801 | -48.28897 | 5953 ft | 197 kts | 359° |
| 2026-04-18 16:11 | -11.64434 | -48.28934 | 5957 ft | 197 kts | 360° |
| 2026-04-18 16:11 | -11.63053 | -48.28973 | 5957 ft | 197 kts | 360° |
| 2026-04-18 16:11 | -11.61664 | -48.29011 | 5959 ft | 197 kts | 359° |
| 2026-04-18 16:12 | -11.60297 | -48.29049 | 5954 ft | 197 kts | 359° |
| 2026-04-18 16:12 | -11.58913 | -48.29087 | 5954 ft | 197 kts | 360° |
| 2026-04-18 16:12 | -11.57531 | -48.29126 | 5957 ft | 197 kts | 360° |
| 2026-04-18 16:12 | -11.56155 | -48.29163 | 5956 ft | 197 kts | 359° |
| 2026-04-18 16:13 | -11.54781 | -48.29201 | 5953 ft | 197 kts | 359° |
| 2026-04-18 16:13 | -11.53388 | -48.29240 | 5954 ft | 197 kts | 359° |
| 2026-04-18 16:13 | -11.52020 | -48.29278 | 5952 ft | 198 kts | 359° |
| 2026-04-18 16:13 | -11.50628 | -48.29316 | 5948 ft | 198 kts | 360° |
| 2026-04-18 16:14 | -11.49243 | -48.29355 | 5945 ft | 198 kts | 360° |
| 2026-04-18 16:14 | -11.47857 | -48.29393 | 5941 ft | 199 kts | 360° |
| 2026-04-18 16:14 | -11.46467 | -48.29432 | 5938 ft | 199 kts | 0° |
| 2026-04-18 16:14 | -11.45081 | -48.29470 | 5943 ft | 198 kts | 360° |
| 2026-04-18 16:15 | -11.42308 | -48.29547 | 5943 ft | 198 kts | 360° |
| 2026-04-18 16:15 | -11.40922 | -48.29584 | 5940 ft | 197 kts | 360° |
| 2026-04-18 16:15 | -11.39534 | -48.29623 | 5947 ft | 197 kts | 360° |
| 2026-04-18 16:16 | -11.38154 | -48.29661 | 5949 ft | 197 kts | 360° |
| 2026-04-18 16:16 | -11.36767 | -48.29699 | 5949 ft | 198 kts | 359° |
| 2026-04-18 16:16 | -11.35385 | -48.29738 | 5948 ft | 198 kts | 359° |
| 2026-04-18 16:16 | -11.33996 | -48.29776 | 5945 ft | 198 kts | 360° |
| 2026-04-18 16:17 | -11.32622 | -48.29814 | 5948 ft | 198 kts | 0° |
| 2026-04-18 16:17 | -11.31235 | -48.29853 | 5948 ft | 198 kts | 0° |
| 2026-04-18 16:17 | -11.29839 | -48.29892 | 5947 ft | 198 kts | 0° |
| 2026-04-18 16:17 | -11.28480 | -48.29733 | 5944 ft | 196 kts | 15° |
| 2026-04-18 16:18 | -11.27161 | -48.29372 | 5947 ft | 196 kts | 16° |
| 2026-04-18 16:18 | -11.25837 | -48.29003 | 5949 ft | 196 kts | 17° |
| 2026-04-18 16:18 | -11.24513 | -48.28633 | 5946 ft | 196 kts | 17° |
| 2026-04-18 16:18 | -11.23193 | -48.28263 | 5946 ft | 195 kts | 17° |
| 2026-04-18 16:19 | -11.21878 | -48.27895 | 5946 ft | 195 kts | 17° |
| 2026-04-18 16:19 | -11.20553 | -48.27523 | 5950 ft | 195 kts | 16° |
| 2026-04-18 16:19 | -11.19231 | -48.27153 | 5950 ft | 196 kts | 17° |
| 2026-04-18 16:19 | -11.17906 | -48.26782 | 5947 ft | 196 kts | 17° |
| 2026-04-18 16:20 | -11.16586 | -48.26411 | 5944 ft | 196 kts | 17° |
| 2026-04-18 16:20 | -11.15257 | -48.26038 | 5941 ft | 196 kts | 17° |
| 2026-04-18 16:20 | -11.13939 | -48.25669 | 5944 ft | 196 kts | 17° |
| 2026-04-18 16:20 | -11.12608 | -48.25296 | 5945 ft | 196 kts | 17° |
| 2026-04-18 16:21 | -11.11280 | -48.24923 | 5948 ft | 196 kts | 17° |
| 2026-04-18 16:21 | -11.09960 | -48.24553 | 5952 ft | 196 kts | 17° |
| 2026-04-18 16:21 | -11.08648 | -48.24185 | 5947 ft | 196 kts | 17° |
| 2026-04-18 16:21 | -11.07316 | -48.23811 | 5949 ft | 196 kts | 17° |
| 2026-04-18 16:22 | -11.06003 | -48.23444 | 5950 ft | 196 kts | 17° |
| 2026-04-18 16:22 | -11.04678 | -48.23072 | 5946 ft | 196 kts | 17° |
| 2026-04-18 16:22 | -11.03363 | -48.22703 | 5952 ft | 195 kts | 17° |
| 2026-04-18 16:22 | -11.02050 | -48.22335 | 5954 ft | 195 kts | 17° |
| 2026-04-18 16:23 | -11.00728 | -48.21965 | 5957 ft | 195 kts | 17° |
| 2026-04-18 16:23 | -10.99414 | -48.21596 | 5967 ft | 195 kts | 16° |
| 2026-04-18 16:23 | -10.96776 | -48.20858 | 5943 ft | 196 kts | 17° |
| 2026-04-18 16:24 | -10.95429 | -48.20480 | 5835 ft | 201 kts | 17° |
| 2026-04-18 16:24 | -10.94061 | -48.20128 | 5760 ft | 202 kts | 8° |
| 2026-04-18 16:24 | -10.92641 | -48.20143 | 5670 ft | 205 kts | 358° |
| 2026-04-18 16:24 | -10.91202 | -48.20234 | 5603 ft | 205 kts | 358° |
| 2026-04-18 16:25 | -10.89793 | -48.20325 | 5540 ft | 197 kts | 358° |
| 2026-04-18 16:25 | -10.88423 | -48.20414 | 5455 ft | 196 kts | 358° |
| 2026-04-18 16:25 | -10.87059 | -48.20503 | 5379 ft | 197 kts | 358° |
| 2026-04-18 16:25 | -10.85660 | -48.20595 | 5304 ft | 198 kts | 358° |
| 2026-04-18 16:26 | -10.84292 | -48.20685 | 5232 ft | 199 kts | 358° |
| 2026-04-18 16:26 | -10.82889 | -48.20777 | 5162 ft | 199 kts | 358° |
| 2026-04-18 16:26 | -10.81511 | -48.20868 | 5095 ft | 199 kts | 357° |
| 2026-04-18 16:26 | -10.80113 | -48.20961 | 5028 ft | 199 kts | 358° |
| 2026-04-18 16:27 | -10.78712 | -48.21053 | 4962 ft | 199 kts | 358° |
| 2026-04-18 16:27 | -10.77322 | -48.21144 | 4882 ft | 199 kts | 358° |
| 2026-04-18 16:27 | -10.75926 | -48.21236 | 4803 ft | 199 kts | 357° |
| 2026-04-18 16:27 | -10.74528 | -48.21327 | 4722 ft | 199 kts | 358° |
| 2026-04-18 16:28 | -10.73145 | -48.21417 | 4653 ft | 199 kts | 357° |
| 2026-04-18 16:28 | -10.71741 | -48.21477 | 4576 ft | 199 kts | 1° |
| 2026-04-18 16:28 | -10.70358 | -48.21457 | 4504 ft | 199 kts | 2° |
| 2026-04-18 16:28 | -10.68968 | -48.21426 | 4428 ft | 199 kts | 2° |
| 2026-04-18 16:29 | -10.67572 | -48.21392 | 4351 ft | 199 kts | 3° |
| 2026-04-18 16:29 | -10.66180 | -48.21357 | 4275 ft | 199 kts | 2° |
| 2026-04-18 16:29 | -10.64790 | -48.21321 | 4198 ft | 199 kts | 3° |
| 2026-04-18 16:29 | -10.63390 | -48.21286 | 4125 ft | 199 kts | 2° |
| 2026-04-18 16:30 | -10.61986 | -48.21249 | 4059 ft | 199 kts | 2° |
| 2026-04-18 16:30 | -10.60596 | -48.21214 | 4001 ft | 199 kts | 2° |
| 2026-04-18 16:30 | -10.59206 | -48.21177 | 3951 ft | 200 kts | 2° |
| 2026-04-18 16:30 | -10.57791 | -48.21141 | 3967 ft | 201 kts | 2° |
| 2026-04-18 16:31 | -10.56367 | -48.21105 | 3981 ft | 203 kts | 2° |
| 2026-04-18 16:31 | -10.54949 | -48.21069 | 3977 ft | 205 kts | 2° |
| 2026-04-18 16:31 | -10.53498 | -48.21031 | 3962 ft | 207 kts | 2° |
| 2026-04-18 16:31 | -10.52034 | -48.20993 | 3853 ft | 212 kts | 2° |
| 2026-04-18 16:32 | -10.50600 | -48.20955 | 3754 ft | 199 kts | 2° |
| 2026-04-18 16:32 | -10.49227 | -48.20919 | 3630 ft | 190 kts | 2° |
| 2026-04-18 16:32 | -10.47928 | -48.20885 | 3495 ft | 186 kts | 2° |
| 2026-04-18 16:32 | -10.46637 | -48.20851 | 3310 ft | 185 kts | 2° |
| 2026-04-18 16:33 | -10.45330 | -48.20818 | 3086 ft | 186 kts | 2° |
| 2026-04-18 16:33 | -10.44019 | -48.20784 | 2863 ft | 186 kts | 2° |
| 2026-04-18 16:33 | -10.42723 | -48.20750 | 2661 ft | 186 kts | 2° |
| 2026-04-18 16:33 | -10.41405 | -48.20716 | 2451 ft | 186 kts | 1° |
| 2026-04-18 16:34 | -10.40118 | -48.20685 | 2248 ft | 185 kts | 0° |
| 2026-04-18 16:34 | -10.38919 | -48.21122 | 2011 ft | 185 kts | 320° |
| 2026-04-18 16:34 | -10.38165 | -48.22158 | 1796 ft | 185 kts | 296° |
| 2026-04-18 16:34 | -10.37774 | -48.23415 | 1570 ft | 184 kts | 295° |
| 2026-04-18 16:35 | -10.36971 | -48.24383 | 1480 ft | 174 kts | 316° |
| 2026-04-18 16:35 | -10.36191 | -48.25261 | 1545 ft | 161 kts | 309° |
| 2026-04-18 16:35 | -10.35534 | -48.26138 | 1618 ft | 153 kts | 308° |
| 2026-04-18 16:35 | -10.34904 | -48.27013 | 1585 ft | 144 kts | 307° |
| 2026-04-18 16:36 | -10.34338 | -48.27836 | 1568 ft | 136 kts | 306° |
| 2026-04-18 16:36 | -10.33815 | -48.28624 | 1581 ft | 135 kts | 305° |
| 2026-04-18 16:36 | -10.33285 | -48.29428 | 1578 ft | 136 kts | 305° |
| 2026-04-18 16:36 | -10.32756 | -48.30233 | 1565 ft | 136 kts | 305° |
| 2026-04-18 16:37 | -10.32240 | -48.31020 | 1571 ft | 133 kts | 305° |
| 2026-04-18 16:37 | -10.31734 | -48.31790 | 1549 ft | 126 kts | 305° |
| 2026-04-18 16:37 | -10.31253 | -48.32525 | 1549 ft | 121 kts | 305° |
| 2026-04-18 16:37 | -10.30784 | -48.33254 | 1358 ft | 120 kts | 307° |
| 2026-04-18 16:38 | -10.30331 | -48.33918 | 1029 ft | 115 kts | 307° |
| 2026-04-18 16:38 | -10.29887 | -48.34603 | 856 ft | 117 kts | 305° |
| 2026-04-18 16:38 | -10.29456 | -48.35253 | 780 ft | 97 kts | 308° |
| 2026-04-18 16:38 | -10.29170 | -48.35663 | 780 ft | 47 kts | 307° |
| 2026-04-18 16:39 | -10.29011 | -48.35903 | 779 ft | 31 kts | 301° |
| 2026-04-18 16:39 | -10.28908 | -48.36061 | 779 ft | 23 kts | 305° |
| 2026-04-18 16:39 | -10.28891 | -48.36120 | 779 ft | 12 kts | 148° |
| 2026-04-18 16:39 | -10.28956 | -48.36022 | 779 ft | 21 kts | 120° |
| 2026-04-18 16:40 | -10.29047 | -48.35873 | 779 ft | 27 kts | 123° |
| 2026-04-18 16:40 | -10.29131 | -48.35741 | 779 ft | 12 kts | 123° |
| 2026-04-18 16:40 | -10.29224 | -48.35752 | 780 ft | 14 kts | 211° |
| 2026-04-18 16:40 | -10.29309 | -48.35808 | 779 ft | 12 kts | 211° |
| 2026-04-18 16:41 | -10.29393 | -48.35844 | 779 ft | 0 kts | 216° |
| 2026-04-18 16:41 | -10.29394 | -48.35844 | 779 ft | 0 kts | 217° |